Time;durP1;ratioP1;P1;durP2;ratioP2;P2;SDS_P1;SDS_P2;PMS_P1;PMS_P2;Temp;Humidity;BMP_temperature;BMP_pressure;BME280_temperature;BME280_humidity;BME280_pressure;Samples;Min_cycle;Max_cycle;Signal;HPM_P1;HPM_P2
2023/02/06 00:00:31;;;;;;;;;;;;;;;-144.99;95.48;52543.91;5041073;28;19947;-77
2023/02/06 00:02:58;;;;;;;;;;;;;;;-144.99;95.62;52525.56;5045355;28;20016;-75
2023/02/06 00:05:24;;;;;;;;;;;;;;;-144.99;95.61;52537.78;5040338;28;20027;-75
2023/02/06 00:07:52;;;;;;;;;;;;;;;-144.99;95.56;52545.94;5040188;28;20380;-77
2023/02/06 00:10:19;;;;;;;;;;;;;;;-144.99;95.67;52558.16;5042709;28;20027;-75
2023/02/06 00:12:45;;;;;;;;;;;;;;;-144.99;95.30;52541.84;5054250;28;20066;-78
2023/02/06 00:15:12;;;;;;;;;;;;;;;-144.99;95.21;52517.41;5060633;28;19928;-78
2023/02/06 00:17:38;;;;;;;;;;;;;;;-144.99;95.14;52537.78;5045377;28;20008;-75
2023/02/06 00:20:06;;;;;;;;;;;;;;;-144.99;95.38;52541.84;5043219;28;20020;-75
2023/02/06 00:22:33;;;;;;;;;;;;;;;-144.99;95.49;52515.34;5043490;28;20023;-77
2023/02/06 00:25:01;;;;;;;;;;;;;;;-144.99;95.56;52509.25;5041561;28;19948;-77
2023/02/06 00:27:27;;;;;;;;;;;;;;;-144.99;95.62;52513.31;5039133;28;19975;-73
2023/02/06 00:29:54;;;;;;;;;;;;;;;-144.99;95.47;52529.63;5040240;28;20467;-76
2023/02/06 00:32:20;;;;;;;;;;;;;;;-144.99;95.23;52478.66;5043548;28;19963;-74
2023/02/06 00:34:47;;;;;;;;;;;;;;;-144.99;95.42;52533.69;5044702;28;19929;-78
2023/02/06 00:37:13;;;;;;;;;;;;;;;-144.99;95.72;52541.84;5044290;28;20023;-75
2023/02/06 00:39:40;;;;;;;;;;;;;;;-144.99;95.95;52529.63;5042583;28;20048;-73
2023/02/06 00:42:08;;;;;;;;;;;;;;;-144.99;95.88;52558.16;5043919;28;20013;-77
2023/02/06 00:44:34;;;;;;;;;;;;;;;-144.99;96.03;52509.25;5043209;28;19956;-76
2023/02/06 00:47:01;;;;;;;;;;;;;;;-144.99;96.21;52525.56;5043687;28;20028;-74
2023/02/06 00:49:27;;;;;;;;;;;;;;;-144.99;97.16;52537.78;5041715;28;20027;-76
2023/02/06 00:51:54;;;;;;;;;;;;;;;-144.99;97.15;52525.56;5041513;28;20380;-75
2023/02/06 00:54:20;;;;;;;;;;;;;;;-144.99;97.36;52533.69;5042829;28;20370;-75
2023/02/06 00:56:47;;;;;;;;;;;;;;;-144.99;97.24;52509.25;5041803;28;20482;-78
2023/02/06 00:59:15;;;;;;;;;;;;;;;-144.99;97.38;52554.09;5043401;28;19932;-76
2023/02/06 01:01:41;;;;;;;;;;;;;;;-144.99;97.74;52517.41;5041570;28;19955;-78
2023/02/06 01:04:08;;;;;;;;;;;;;;;-144.99;97.66;52521.47;5045569;28;20007;-75
2023/02/06 01:06:34;;;;;;;;;;;;;;;-144.99;97.93;52521.47;5047334;28;19964;-74
2023/02/06 01:09:00;;;;;;;;;;;;;;;-144.99;98.01;52517.41;5042647;28;19982;-74
2023/02/06 01:11:27;;;;;;;;;;;;;;;-144.99;97.43;52505.16;5040200;28;20094;-75
2023/02/06 01:13:53;;;;;;;;;;;;;;;-144.99;97.32;52523.50;5043530;28;20015;-76
2023/02/06 01:16:23;;;;;;;;;;;;;;;-144.99;97.19;52533.69;5043691;28;20015;-76
2023/02/06 01:18:49;;;;;;;;;;;;;;;-144.99;96.73;52556.13;5042585;28;20015;-75
2023/02/06 01:21:16;;;;;;;;;;;;;;;-144.99;96.52;52541.84;5042631;28;20388;-74
2023/02/06 01:23:43;;;;;;;;;;;;;;;-144.99;97.10;52505.16;5051764;28;20946;-77
2023/02/06 01:26:10;;;;;;;;;;;;;;;-144.99;96.89;52552.03;5060457;28;19928;-75
2023/02/06 01:28:37;;;;;;;;;;;;;;;-144.99;96.41;52541.84;5043093;28;20012;-74
2023/02/06 01:31:09;;;;;;;;;;;;;;;-144.99;96.71;52529.63;5041431;28;19933;-78
2023/02/06 01:33:37;;;;;;;;;;;;;;;-144.99;97.12;52545.94;5034890;28;20017;-76
2023/02/06 01:36:03;;;;;;;;;;;;;;;-144.99;97.17;52519.44;5040706;28;19968;-76
2023/02/06 01:38:30;;;;;;;;;;;;;;;-144.99;97.20;52554.09;5040389;28;20327;-75
2023/02/06 01:40:56;;;;;;;;;;;;;;;-144.99;97.26;52554.09;5041538;28;20461;-77
2023/02/06 01:43:23;;;;;;;;;;;;;;;-144.99;97.83;52521.47;5042166;28;20031;-75
2023/02/06 01:45:50;;;;;;;;;;;;;;;-144.99;97.46;52537.78;5043954;28;20042;-76
2023/02/06 01:48:19;;;;;;;;;;;;;;;-144.99;97.50;52509.25;5043638;28;20026;-74
2023/02/06 01:50:50;;;;;;;;;;;;;;;-144.99;97.20;52554.09;5041661;28;20068;-76
2023/02/06 01:53:18;;;;;;;;;;;;;;;-144.99;97.06;52505.16;5040349;28;19998;-76
2023/02/06 01:55:45;;;;;;;;;;;;;;;-144.99;96.99;52497.00;5042921;28;20058;-77
2023/02/06 01:58:14;;;;;;;;;;;;;;;-144.99;96.89;52556.13;5042539;28;20017;-75
2023/02/06 02:00:40;;;;;;;;;;;;;;;-144.99;96.21;52515.34;5060532;28;19928;-82
2023/02/06 02:03:07;;;;;;;;;;;;;;;-144.99;96.75;52537.78;5048522;28;20360;-75
2023/02/06 02:05:34;;;;;;;;;;;;;;;-144.99;96.98;52521.47;5039359;28;19925;-77
2023/02/06 02:08:06;;;;;;;;;;;;;;;-144.99;96.63;52507.19;4694247;28;10000156;-73
2023/02/06 02:10:32;;;;;;;;;;;;;;;-144.99;96.74;52545.94;5040804;28;20483;-77
2023/02/06 02:12:59;;;;;;;;;;;;;;;-144.99;96.43;52574.47;5042012;28;19967;-77
2023/02/06 02:15:32;;;;;;;;;;;;;;;-144.99;96.47;52554.09;5042351;28;20020;-73
2023/02/06 02:18:02;;;;;;;;;;;;;;;-144.99;96.43;52517.41;5042783;28;20460;-74
2023/02/06 02:20:46;;;;;;;;;;;;;;;-144.99;96.46;52541.84;5045319;28;20372;-75
2023/02/06 02:23:25;;;;;;;;;;;;;;;-144.99;96.52;52537.78;5034213;28;19960;-75
2023/02/06 02:26:04;;;;;;;;;;;;;;;-144.99;96.52;52507.19;5047808;28;19932;-72
2023/02/06 02:28:42;;;;;;;;;;;;;;;-144.99;96.77;52558.16;5047517;28;20036;-75
2023/02/06 02:31:19;;;;;;;;;;;;;;;-144.99;97.13;52515.34;5047746;28;21750;-74
2023/02/06 02:34:06;;;;;;;;;;;;;;;-144.99;97.12;52556.13;5046108;28;20002;-76
2023/02/06 02:36:37;;;;;;;;;;;;;;;-144.99;96.99;52519.44;5062331;28;19925;-74
2023/02/06 02:39:14;;;;;;;;;;;;;;;-144.99;96.89;52545.94;5039006;28;19976;-77
2023/02/06 02:41:44;;;;;;;;;;;;;;;-144.99;96.71;52521.47;5043764;28;19970;-73
2023/02/06 02:44:12;;;;;;;;;;;;;;;-144.99;96.87;52533.69;5042978;28;19968;-76
2023/02/06 02:46:40;;;;;;;;;;;;;;;-144.99;96.82;52513.31;5044794;28;19964;-73
2023/02/06 02:49:09;;;;;;;;;;;;;;;-144.99;96.63;52578.53;5039445;28;21094;-73
2023/02/06 02:51:38;;;;;;;;;;;;;;;-144.99;96.40;52574.47;5041093;28;19968;-76
2023/02/06 02:54:04;;;;;;;;;;;;;;;-144.99;96.38;52525.56;5043846;28;19933;-77
2023/02/06 02:56:32;;;;;;;;;;;;;;;-144.99;96.14;52537.78;5031078;28;19956;-73
2023/02/06 02:59:01;;;;;;;;;;;;;;;-144.99;96.37;52494.97;5041855;28;20280;-75
2023/02/06 03:01:30;;;;;;;;;;;;;;;-144.99;96.27;52533.69;5042928;28;20719;-76
2023/02/06 03:03:59;;;;;;;;;;;;;;;-144.99;96.39;52556.13;5036537;28;19990;-72
2023/02/06 03:06:31;;;;;;;;;;;;;;;-144.99;96.50;52505.16;5047673;28;20026;-73
2023/02/06 03:09:02;;;;;;;;;;;;;;;-144.99;96.63;52564.28;5042282;28;20023;-72
2023/02/06 03:11:29;;;;;;;;;;;;;;;-144.99;96.82;52505.16;5039224;28;19964;-76
2023/02/06 03:13:59;;;;;;;;;;;;;;;-144.99;96.49;52521.47;5044201;28;19968;-73
2023/02/06 03:16:28;;;;;;;;;;;;;;;-144.99;96.44;52541.84;5037907;28;20020;-75
2023/02/06 03:18:56;;;;;;;;;;;;;;;-144.99;96.14;52513.31;5043625;28;20375;-70
2023/02/06 03:21:24;;;;;;;;;;;;;;;-144.99;96.38;52513.31;5042741;28;20018;-72
2023/02/06 03:23:52;;;;;;;;;;;;;;;-144.99;96.93;52509.25;5038601;28;20027;-74
2023/02/06 03:26:22;;;;;;;;;;;;;;;-144.99;96.65;52521.47;5043236;28;19932;-71
2023/02/06 03:28:51;;;;;;;;;;;;;;;-144.99;96.76;52531.66;5043778;28;19925;-72
2023/02/06 03:31:20;;;;;;;;;;;;;;;-144.99;96.70;52505.16;5045175;28;19983;-74
2023/02/06 03:33:49;;;;;;;;;;;;;;;-144.99;96.57;52507.19;5046363;28;19952;-74
2023/02/06 03:36:17;;;;;;;;;;;;;;;-144.99;96.48;52570.38;5052875;28;19979;-72
2023/02/06 03:38:44;;;;;;;;;;;;;;;-144.99;96.28;52554.09;5043653;28;19947;-74
2023/02/06 03:41:12;;;;;;;;;;;;;;;-144.99;96.72;52517.41;5049929;28;19956;-73
2023/02/06 03:43:42;;;;;;;;;;;;;;;-144.99;96.80;52519.44;5091920;22;19925;-79
2023/02/06 03:46:11;;;;;;;;;;;;;;;-144.99;96.45;52521.47;5067338;28;19936;-78
2023/02/06 03:48:39;;;;;;;;;;;;;;;-144.99;96.72;52543.91;5066681;28;19925;-77
2023/02/06 03:51:08;;;;;;;;;;;;;;;-144.99;96.91;52541.84;5058472;28;19925;-80
2023/02/06 03:53:36;;;;;;;;;;;;;;;-144.99;96.73;52543.91;5053760;28;20481;-78
2023/02/06 03:56:06;;;;;;;;;;;;;;;-144.99;96.73;52509.25;5052792;28;19933;-77
2023/02/06 03:58:33;;;;;;;;;;;;;;;-144.99;96.99;52558.16;5049012;28;19929;-76
2023/02/06 04:01:02;;;;;;;;;;;;;;;-144.99;97.04;52552.03;5057179;28;19925;-78
2023/02/06 04:03:29;;;;;;;;;;;;;;;-144.99;97.32;52513.31;5075253;28;20203;-78
2023/02/06 04:05:56;;;;;;;;;;;;;;;-144.99;96.81;52515.34;5074789;28;19913;-77
2023/02/06 04:08:22;;;;;;;;;;;;;;;-144.99;96.87;52554.09;5074372;28;19979;-77
2023/02/06 04:10:49;;;;;;;;;;;;;;;-144.99;96.99;52552.03;5076250;28;20122;-77
2023/02/06 04:13:15;;;;;;;;;;;;;;;-144.99;97.25;52554.09;5075430;28;19913;-76
2023/02/06 04:15:42;;;;;;;;;;;;;;;-144.99;96.93;52533.69;5070164;28;19936;-77
2023/02/06 04:18:09;;;;;;;;;;;;;;;-144.99;96.93;52509.25;5065241;28;19925;-76
2023/02/06 04:20:39;;;;;;;;;;;;;;;-144.99;97.37;52529.63;5072763;28;19913;-74
2023/02/06 04:23:06;;;;;;;;;;;;;;;-144.99;97.51;52501.09;5075112;28;19932;-74
2023/02/06 04:25:32;;;;;;;;;;;;;;;-144.99;97.99;52529.63;5068692;28;19932;-75
2023/02/06 04:27:59;;;;;;;;;;;;;;;-144.99;98.30;52509.25;5075187;28;19912;-74
2023/02/06 04:30:25;;;;;;;;;;;;;;;-144.99;98.56;52531.66;5073517;28;19925;-76
2023/02/06 04:32:52;;;;;;;;;;;;;;;-144.99;99.08;52550.00;5071642;28;19936;-74
2023/02/06 04:35:20;;;;;;;;;;;;;;;-144.99;98.80;52529.63;5071683;28;19929;-76
2023/02/06 04:37:46;;;;;;;;;;;;;;;-144.99;98.76;52529.63;5070531;28;19920;-74
2023/02/06 04:40:13;;;;;;;;;;;;;;;-144.99;98.36;52541.84;5065158;28;19927;-76
2023/02/06 04:42:39;;;;;;;;;;;;;;;-144.99;98.25;52525.56;5071719;28;19933;-76
2023/02/06 04:45:06;;;;;;;;;;;;;;;-144.99;98.19;52525.56;5072502;28;19912;-76
2023/02/06 04:47:33;;;;;;;;;;;;;;;-144.99;98.22;52558.16;5074710;28;19921;-75
2023/02/06 04:49:59;;;;;;;;;;;;;;;-144.99;98.46;52517.41;5072874;28;20005;-76
2023/02/06 04:52:27;;;;;;;;;;;;;;;-144.99;98.48;52523.50;5064930;28;19925;-77
2023/02/06 04:54:53;;;;;;;;;;;;;;;-144.99;98.98;52513.31;5055347;28;20403;-77
2023/02/06 04:57:20;;;;;;;;;;;;;;;-144.99;98.92;52517.41;5053128;28;19978;-75
2023/02/06 04:59:47;;;;;;;;;;;;;;;-144.99;98.64;52529.63;5048373;28;19929;-78
2023/02/06 05:02:13;;;;;;;;;;;;;;;-144.99;98.59;52525.56;5047744;28;19998;-75
2023/02/06 05:04:39;;;;;;;;;;;;;;;-144.99;98.84;52574.47;5047962;28;19974;-77
2023/02/06 05:07:06;;;;;;;;;;;;;;;-144.99;98.72;52586.69;5048806;28;20199;-76
2023/02/06 05:09:34;;;;;;;;;;;;;;;-144.99;98.75;52533.69;5038704;28;19972;-76
2023/02/06 05:12:00;;;;;;;;;;;;;;;-144.99;98.77;52562.25;5048072;28;20010;-76
2023/02/06 05:14:27;;;;;;;;;;;;;;;-144.99;98.08;52554.09;5046962;28;19929;-75
2023/02/06 05:16:53;;;;;;;;;;;;;;;-144.99;97.95;52558.16;5044482;28;20027;-76
2023/02/06 05:19:20;;;;;;;;;;;;;;;-144.99;97.41;52525.56;5061194;28;19962;-76
2023/02/06 05:21:46;;;;;;;;;;;;;;;-144.99;97.90;52558.16;5060948;28;19932;-76
2023/02/06 05:24:13;;;;;;;;;;;;;;;-144.99;98.21;52578.53;5045897;28;20382;-76
2023/02/06 05:26:41;;;;;;;;;;;;;;;-144.99;98.07;52554.09;5044633;28;20472;-74
2023/02/06 05:29:07;;;;;;;;;;;;;;;-144.99;97.39;52521.47;5051506;28;19936;-71
2023/02/06 05:31:34;;;;;;;;;;;;;;;-144.99;97.17;52562.25;5046925;28;19933;-73
2023/02/06 05:34:00;;;;;;;;;;;;;;;-144.99;98.26;52517.41;5045617;28;19929;-73
2023/02/06 05:36:28;;;;;;;;;;;;;;;-144.99;96.91;52543.91;5042756;28;19929;-73
2023/02/06 05:38:54;;;;;;;;;;;;;;;-144.99;96.98;52525.56;5046127;28;19938;-72
2023/02/06 05:41:20;;;;;;;;;;;;;;;-144.99;97.22;52515.34;5046167;28;19960;-74
2023/02/06 05:43:48;;;;;;;;;;;;;;;-144.99;97.63;52558.16;5045316;28;20029;-73
2023/02/06 05:46:15;;;;;;;;;;;;;;;-144.99;97.03;52517.41;5045257;28;20403;-72
2023/02/06 05:48:42;;;;;;;;;;;;;;;-144.99;97.54;52523.50;5043653;28;19978;-74
2023/02/06 05:51:08;;;;;;;;;;;;;;;-144.99;97.61;52545.94;5046031;28;20370;-75
2023/02/06 05:53:35;;;;;;;;;;;;;;;-144.99;97.49;52521.47;5046038;28;19956;-73
2023/02/06 05:56:02;;;;;;;;;;;;;;;-144.99;97.60;52541.84;5050345;28;19986;-77
2023/02/06 05:58:28;;;;;;;;;;;;;;;-144.99;97.43;52525.56;5070072;28;19963;-72
2023/02/06 06:00:57;;;;;;;;;;;;;;;-144.99;97.64;52541.84;5053584;28;19967;-74
2023/02/06 06:03:23;;;;;;;;;;;;;;;-144.99;97.56;52517.41;5049450;28;19929;-76
2023/02/06 06:05:50;;;;;;;;;;;;;;;-144.99;97.60;52513.31;5046735;28;20411;-74
2023/02/06 06:08:16;;;;;;;;;;;;;;;-144.99;97.45;52523.50;5046577;28;20002;-74
2023/02/06 06:10:42;;;;;;;;;;;;;;;-144.99;97.60;52550.00;5048516;28;20404;-76
2023/02/06 06:13:09;;;;;;;;;;;;;;;-144.99;97.33;52515.34;5044400;28;19924;-74
2023/02/06 06:15:35;;;;;;;;;;;;;;;-144.99;97.10;52550.00;4686799;28;10000063;-73
2023/02/06 06:18:03;;;;;;;;;;;;;;;-144.99;94.88;52480.72;5042993;28;19928;-74
2023/02/06 06:20:30;;;;;;;;;;;;;;;-144.99;94.06;52509.25;5043296;28;19964;-76
2023/02/06 06:22:56;;;;;;;;;;;;;;;-144.99;93.76;52494.97;5039484;28;20335;-74
2023/02/06 06:25:23;;;;;;;;;;;;;;;-144.99;93.74;52541.84;5042285;28;19937;-75
2023/02/06 06:27:49;;;;;;;;;;;;;;;-144.99;93.64;52560.19;5042740;28;19924;-75
2023/02/06 06:30:16;;;;;;;;;;;;;;;-144.99;93.75;52513.31;5042691;28;19974;-76
2023/02/06 06:32:42;;;;;;;;;;;;;;;-144.99;93.43;52525.56;5041959;28;20403;-75
2023/02/06 06:35:10;;;;;;;;;;;;;;;-144.99;93.10;52543.91;5054419;28;19964;-77
2023/02/06 06:37:36;;;;;;;;;;;;;;;-144.99;95.13;52525.56;5059854;28;19982;-76
2023/02/06 06:40:03;;;;;;;;;;;;;;;-144.99;96.33;52537.78;5043931;28;19933;-74
2023/02/06 06:42:29;;;;;;;;;;;;;;;-144.99;97.11;52558.16;5043761;28;19929;-75
2023/02/06 06:44:56;;;;;;;;;;;;;;;-144.99;97.10;52529.63;5041372;28;20499;-76
2023/02/06 06:47:22;;;;;;;;;;;;;;;-144.99;97.42;52537.78;5045080;28;19928;-75
2023/02/06 06:49:49;;;;;;;;;;;;;;;-144.99;97.30;52529.63;5044276;28;19960;-74
2023/02/06 06:52:17;;;;;;;;;;;;;;;-144.99;97.58;52513.31;5044590;28;20106;-74
2023/02/06 06:54:43;;;;;;;;;;;;;;;-144.99;98.01;52476.63;5042066;28;20574;-74
2023/02/06 06:57:12;;;;;;;;;;;;;;;-144.99;98.12;52515.34;5048346;28;19924;-75
2023/02/06 06:59:38;;;;;;;;;;;;;;;-144.99;99.18;52525.56;5043545;28;19936;-75
2023/02/06 07:02:05;;;;;;;;;;;;;;;-144.99;99.55;52484.78;5044498;28;19956;-77
2023/02/06 07:04:32;;;;;;;;;;;;;;;-144.99;99.47;52501.09;5042891;28;20252;-76
2023/02/06 07:06:58;;;;;;;;;;;;;;;-144.99;99.46;52564.28;5048137;28;19932;-75
2023/02/06 07:09:26;;;;;;;;;;;;;;;-144.99;99.66;52558.16;5054866;28;20419;-75
2023/02/06 07:11:52;;;;;;;;;;;;;;;-144.99;99.97;52574.47;5057385;28;19948;-75
2023/02/06 07:14:19;;;;;;;;;;;;;;;-144.99;100.00;52515.34;5061656;28;19932;-74
2023/02/06 07:16:45;;;;;;;;;;;;;;;-144.99;100.00;52529.63;5050160;28;19964;-75
2023/02/06 07:19:12;;;;;;;;;;;;;;;-144.99;100.00;52497.00;5056348;28;19960;-77
2023/02/06 07:21:38;;;;;;;;;;;;;;;-144.99;99.74;52503.13;5058253;28;19944;-74
2023/02/06 07:24:05;;;;;;;;;;;;;;;-144.99;99.87;52517.41;5056634;28;19960;-75
2023/02/06 07:26:33;;;;;;;;;;;;;;;-144.99;99.55;52558.16;5056804;28;19964;-77
2023/02/06 07:29:00;;;;;;;;;;;;;;;-144.99;100.00;52529.63;5064617;28;19994;-76
2023/02/06 07:31:26;;;;;;;;;;;;;;;-144.99;100.00;52501.09;5052735;28;20032;-76
2023/02/06 07:33:53;;;;;;;;;;;;;;;-144.99;100.00;52484.78;5053206;28;20327;-75
2023/02/06 07:36:19;;;;;;;;;;;;;;;-144.99;100.00;52480.72;5048947;28;20407;-76
2023/02/06 07:38:46;;;;;;;;;;;;;;;-144.99;100.00;52488.84;5049526;28;19928;-75
2023/02/06 07:41:12;;;;;;;;;;;;;;;-144.99;100.00;52541.84;5049396;28;20016;-76
2023/02/06 07:43:40;;;;;;;;;;;;;;;-144.99;99.88;52550.00;5048263;28;20351;-75
2023/02/06 07:46:06;;;;;;;;;;;;;;;-144.99;99.91;52525.56;5046394;28;20069;-76
2023/02/06 07:48:33;;;;;;;;;;;;;;;-144.99;100.00;52533.69;5050124;28;19960;-76
2023/02/06 07:51:04;;;;;;;;;;;;;;;-144.99;100.00;52529.63;5059554;28;19968;-78
2023/02/06 07:53:30;;;;;;;;;;;;;;;-144.99;100.00;52539.81;5047483;28;20446;-75
2023/02/06 07:55:57;;;;;;;;;;;;;;;-144.99;100.00;52521.47;5049177;28;19964;-75
2023/02/06 07:58:24;;;;;;;;;;;;;;;-144.99;100.00;52537.78;5057395;28;20637;-75
2023/02/06 08:00:53;;;;;;;;;;;;;;;-144.99;100.00;52486.81;5057137;28;20555;-77
2023/02/06 08:03:20;;;;;;;;;;;;;;;-144.99;100.00;52456.25;5048552;28;20441;-76
2023/02/06 08:05:46;;;;;;;;;;;;;;;-144.99;100.00;52501.09;4699624;28;10000350;-74
2023/02/06 08:08:13;;;;;;;;;;;;;;;-144.99;100.00;52505.16;5050143;28;19998;-76
2023/02/06 08:10:39;;;;;;;;;;;;;;;-144.99;100.00;52501.09;5050829;28;20232;-77
2023/02/06 08:13:06;;;;;;;;;;;;;;;-144.99;100.00;52517.41;5048446;28;19978;-77
2023/02/06 08:15:33;;;;;;;;;;;;;;;-144.99;100.00;52517.41;5046181;28;19935;-77
2023/02/06 08:18:00;;;;;;;;;;;;;;;-144.99;100.00;52501.09;5046777;28;20343;-74
2023/02/06 08:20:27;;;;;;;;;;;;;;;-144.99;100.00;52509.25;5037751;28;19982;-74
2023/02/06 08:22:53;;;;;;;;;;;;;;;-144.99;100.00;52513.31;5045239;28;20425;-74
2023/02/06 08:25:20;;;;;;;;;;;;;;;-144.99;100.00;52517.41;5044648;28;19925;-76
2023/02/06 08:27:46;;;;;;;;;;;;;;;-144.99;100.00;52464.41;5064068;28;19912;-77
2023/02/06 08:30:13;;;;;;;;;;;;;;;-144.99;100.00;52513.31;5065471;28;20307;-75
2023/02/06 08:32:40;;;;;;;;;;;;;;;-144.99;100.00;52537.78;5046272;28;20342;-76
2023/02/06 08:35:08;;;;;;;;;;;;;;;-144.99;100.00;52476.63;5045510;28;19987;-76
2023/02/06 08:37:34;;;;;;;;;;;;;;;-144.99;100.00;52505.16;5047027;28;20024;-77
2023/02/06 08:40:01;;;;;;;;;;;;;;;-144.99;100.00;52472.56;5046682;28;20025;-76
2023/02/06 08:42:27;;;;;;;;;;;;;;;-144.99;100.00;52480.72;5044712;28;19986;-75
2023/02/06 08:44:54;;;;;;;;;;;;;;;-144.99;100.00;52517.41;5044026;28;20018;-73
2023/02/06 08:47:20;;;;;;;;;;;;;;;-144.99;100.00;52541.84;5042575;28;20024;-74
2023/02/06 08:49:48;;;;;;;;;;;;;;;-144.99;100.00;52497.00;5046447;28;19967;-74
2023/02/06 08:52:16;;;;;;;;;;;;;;;-144.99;100.00;52499.06;5050586;28;20019;-76
2023/02/06 08:54:43;;;;;;;;;;;;;;;-144.99;100.00;52460.31;5054733;28;19939;-76
2023/02/06 08:57:11;;;;;;;;;;;;;;;-144.99;100.00;52509.25;5053018;28;19972;-75
2023/02/06 08:59:37;;;;;;;;;;;;;;;-144.99;100.00;52484.78;5042375;28;20490;-73
2023/02/06 09:02:05;;;;;;;;;;;;;;;-144.99;100.00;52492.94;5040023;28;19925;-73
2023/02/06 09:04:34;;;;;;;;;;;;;;;-144.99;100.00;52476.63;5043612;28;19929;-77
2023/02/06 09:07:00;;;;;;;;;;;;;;;-144.99;100.00;52501.09;5059214;28;19928;-74
2023/02/06 09:09:28;;;;;;;;;;;;;;;-144.99;100.00;52476.63;5044863;28;20045;-74
2023/02/06 09:12:00;;;;;;;;;;;;;;;-144.99;100.00;52482.75;5043149;28;20523;-74
2023/02/06 09:14:29;;;;;;;;;;;;;;;-144.99;100.00;52519.44;5032855;28;20268;-74
2023/02/06 09:16:57;;;;;;;;;;;;;;;-144.99;100.00;52531.66;5044544;28;20286;-74
2023/02/06 09:19:23;;;;;;;;;;;;;;;-144.99;100.00;52492.94;5043476;28;20205;-74
2023/02/06 09:21:49;;;;;;;;;;;;;;;-144.99;100.00;52505.16;5030954;28;20063;-75
2023/02/06 09:24:16;;;;;;;;;;;;;;;-144.99;100.00;52505.16;5041406;28;20023;-76
2023/02/06 09:26:44;;;;;;;;;;;;;;;-144.99;100.00;52464.41;5044450;28;20144;-74
2023/02/06 09:29:11;;;;;;;;;;;;;;;-144.99;100.00;52497.00;5034615;28;19987;-75
2023/02/06 09:31:39;;;;;;;;;;;;;;;-144.99;100.00;52501.09;5042377;28;20028;-76
2023/02/06 09:34:06;;;;;;;;;;;;;;;-144.99;100.00;52497.00;5042814;28;20296;-72
2023/02/06 09:36:34;;;;;;;;;;;;;;;-144.99;100.00;52517.41;5040119;28;19929;-76
2023/02/06 09:39:01;;;;;;;;;;;;;;;-144.99;100.00;52511.28;5040137;28;20184;-74
2023/02/06 09:41:31;;;;;;;;;;;;;;;-144.99;100.00;52521.47;5047177;28;20380;-74
2023/02/06 09:44:00;;;;;;;;;;;;;;;-144.99;100.00;52513.31;5058128;22;20290;-73
2023/02/06 09:46:30;;;;;;;;;;;;;;;-144.99;100.00;52501.09;5019613;28;20388;-73
2023/02/06 09:48:57;;;;;;;;;;;;;;;-144.99;100.00;52488.84;5028527;28;19962;-72
2023/02/06 09:51:28;;;;;;;;;;;;;;;-144.99;100.00;52492.94;5027989;28;20021;-73
2023/02/06 09:54:04;;;;;;;;;;;;;;;-144.99;100.00;52470.50;5026343;28;19998;-73
2023/02/06 09:56:34;;;;;;;;;;;;;;;-144.99;100.00;52488.84;5025792;28;20261;-73
2023/02/06 09:59:06;;;;;;;;;;;;;;;-144.99;100.00;52517.41;5034708;28;20517;-73
2023/02/06 10:01:35;;;;;;;;;;;;;;;-144.99;100.00;52525.56;5028952;28;20007;-72
2023/02/06 10:04:20;;;;;;;;;;;;;;;-144.99;100.00;52499.06;5024986;28;19979;-72
2023/02/06 10:06:52;;;;;;;;;;;;;;;-144.99;100.00;52474.59;5026290;28;20305;-73
2023/02/06 10:09:21;;;;;;;;;;;;;;;-144.99;100.00;52476.63;5025202;28;19944;-73
2023/02/06 10:11:51;;;;;;;;;;;;;;;-144.99;99.86;52470.50;5026048;28;20472;-73
2023/02/06 10:14:22;;;;;;;;;;;;;;;-144.99;100.00;52501.09;5025190;28;19929;-73
2023/02/06 10:16:52;;;;;;;;;;;;;;;-144.99;100.00;52488.84;5026499;28;20402;-73
2023/02/06 10:19:35;;;;;;;;;;;;;;;-144.99;100.00;52533.69;5026630;28;19991;-73
2023/02/06 10:22:03;;;;;;;;;;;;;;;-144.99;100.00;52492.94;5026500;28;20025;-73
2023/02/06 10:24:34;;;;;;;;;;;;;;;-144.99;99.68;52484.78;5024851;28;19983;-72
2023/02/06 10:27:03;;;;;;;;;;;;;;;-144.99;98.99;52468.47;5025319;28;19967;-74
2023/02/06 10:29:32;;;;;;;;;;;;;;;-144.99;100.00;52462.34;5028606;28;19929;-72
2023/02/06 10:32:06;;;;;;;;;;;;;;;-144.99;100.00;52460.31;5023770;28;19966;-73
2023/02/06 10:34:42;;;;;;;;;;;;;;;-144.99;100.00;52497.00;5025037;28;19942;-73
2023/02/06 10:37:22;;;;;;;;;;;;;;;-144.99;99.80;52488.84;5030593;28;20000;-74
2023/02/06 10:39:53;;;;;;;;;;;;;;;-144.99;99.58;52476.63;5026510;28;20450;-73
2023/02/06 10:42:23;;;;;;;;;;;;;;;-144.99;99.76;52466.44;5025835;28;20226;-73
2023/02/06 10:44:55;;;;;;;;;;;;;;;-144.99;98.09;52460.31;5026428;28;19953;-73
2023/02/06 10:47:30;;;;;;;;;;;;;;;-144.99;96.87;52454.22;5030970;28;20369;-73
2023/02/06 10:50:00;;;;;;;;;;;;;;;-144.99;96.74;52415.47;5027843;28;19996;-73
2023/02/06 10:52:28;;;;;;;;;;;;;;;-144.99;96.70;52472.56;5032049;28;19972;-73
2023/02/06 10:54:56;;;;;;;;;;;;;;;-144.99;96.14;52419.56;5025837;28;20489;-74
2023/02/06 10:57:24;;;;;;;;;;;;;;;-144.99;95.25;52456.25;5025845;28;19963;-73
2023/02/06 10:59:52;;;;;;;;;;;;;;;-144.99;95.25;52468.47;5025589;28;20416;-73
2023/02/06 11:02:23;;;;;;;;;;;;;;;-144.99;94.38;52456.25;5025328;28;19949;-73
2023/02/06 11:04:52;;;;;;;;;;;;;;;-144.99;93.92;52488.84;5024273;28;20377;-73
2023/02/06 11:07:23;;;;;;;;;;;;;;;-144.99;94.07;52497.00;5025394;28;20042;-74
2023/02/06 11:09:50;;;;;;;;;;;;;;;-144.99;93.82;52484.78;5025344;28;19940;-73
2023/02/06 11:12:23;;;;;;;;;;;;;;;-144.99;94.07;52497.00;5025339;28;20057;-74
2023/02/06 11:14:51;;;;;;;;;;;;;;;-144.99;94.90;52450.13;5024513;28;20013;-74
2023/02/06 11:17:21;;;;;;;;;;;;;;;-144.99;94.39;52460.31;5025780;28;20021;-74
2023/02/06 11:19:51;;;;;;;;;;;;;;;-144.99;94.65;52497.00;5025225;28;19966;-74
2023/02/06 11:22:26;;;;;;;;;;;;;;;-144.99;95.04;52439.94;5025345;28;19995;-75
2023/02/06 11:25:00;;;;;;;;;;;;;;;-144.99;93.62;52488.84;5023709;28;20047;-75
2023/02/06 11:27:27;;;;;;;;;;;;;;;-144.99;92.90;52480.72;5021141;28;20025;-74
2023/02/06 11:29:53;;;;;;;;;;;;;;;-144.99;92.77;52515.34;5027254;28;20005;-75
2023/02/06 11:32:29;;;;;;;;;;;;;;;-144.99;92.52;52486.81;5034243;28;20376;-75
2023/02/06 11:35:00;;;;;;;;;;;;;;;-144.99;92.22;52478.66;5028274;28;19953;-75
2023/02/06 11:37:31;;;;;;;;;;;;;;;-144.99;92.01;52484.78;5021715;28;20010;-74
2023/02/06 11:40:13;;;;;;;;;;;;;;;-144.99;91.82;52480.72;5026080;28;19959;-75
2023/02/06 11:42:39;;;;;;;;;;;;;;;-144.99;91.37;52454.22;5025542;28;19964;-73
2023/02/06 11:45:17;;;;;;;;;;;;;;;-144.99;91.17;52435.88;5023582;28;19988;-74
2023/02/06 11:47:44;;;;;;;;;;;;;;;-144.99;90.91;52470.50;5023745;28;20030;-73
2023/02/06 11:50:23;;;;;;;;;;;;;;;-144.99;91.30;52488.84;5024710;28;20302;-75
2023/02/06 11:52:54;;;;;;;;;;;;;;;-144.99;91.67;52517.41;5025124;28;19974;-74
2023/02/06 11:55:22;;;;;;;;;;;;;;;-144.99;92.15;52484.78;5030113;28;19941;-74
2023/02/06 11:58:01;;;;;;;;;;;;;;;-144.99;91.22;52476.63;5030327;28;19974;-74
2023/02/06 12:00:28;;;;;;;;;;;;;;;-144.99;90.83;52435.88;5028961;28;19956;-74
2023/02/06 12:02:55;;;;;;;;;;;;;;;-144.99;91.48;52441.97;5028718;28;19952;-74
2023/02/06 12:05:25;;;;;;;;;;;;;;;-144.99;90.76;52484.78;5031254;28;20412;-71
2023/02/06 12:07:54;;;;;;;;;;;;;;;-144.99;89.10;52464.41;5032688;28;20464;-74
2023/02/06 12:10:23;;;;;;;;;;;;;;;-144.99;89.41;52480.72;5028007;28;20090;-75
2023/02/06 12:12:50;;;;;;;;;;;;;;;-144.99;88.42;52509.25;5027763;28;20074;-74
2023/02/06 12:15:20;;;;;;;;;;;;;;;-144.99;87.84;52476.63;5023651;28;19938;-74
2023/02/06 12:17:54;;;;;;;;;;;;;;;-144.99;88.14;52505.16;5032691;28;20416;-74
2023/02/06 12:20:22;;;;;;;;;;;;;;;-144.99;88.41;52448.09;5028025;28;20033;-74
2023/02/06 12:22:52;;;;;;;;;;;;;;;-144.99;87.89;52499.06;5028234;28;20319;-74
2023/02/06 12:25:26;;;;;;;;;;;;;;;-144.99;87.25;52503.13;5029477;28;19987;-73
2023/02/06 12:27:54;;;;;;;;;;;;;;;-144.99;86.87;52480.72;5032222;28;20032;-74